Startpagina
METAR-TAF:

METAR-TAF

Vliegvelden :

Vliegbasis Deelen

Arnhem, Nederland

breedte: 52-04N, lengte: 005-53E, hoogte: 48 m

Actueel weer

Dit bericht is 25 minuten geleden gemaakt, om 03:25 UTC
Wind 2 kt uit variabele richting
Temperatuur 1°C
Vochtigheid 100%
Druk 1019 hPa
Zicht: 0400 m
mist,

METAR: EHDL 280325Z AUTO VRB02KT 0400 FG VV000 01/01 Q1019 RED

Tijdstip: 04:50 (03:50 UTC)


TAF: ontbreekt

Waarnemingen en weersverwachtingen van meer dan 4000 vliegvelden (METAR en TAF).

De beschikbare stations zijn de gele en rode punten op de kaart.

Ga met uw muis naar het station om de naam te zien.

Klik dan om waarnemingen en weersverwachtingen te zien.

kaart wijzigen: klik op de groene knoppen met een zwart kruis om in te zoomen, op de groene knop met een streepje om uit te zoomen of op de groene pijlen voor aangrenzende kaarten.


METAR-TAF: